sensor_id;sensor_type;location;lat;lon;timestamp;P1;durP1;ratioP1;P2;durP2;ratioP2
59167;SDS011;44948;55.046;73.266;2023-02-15T00:00:42;55.38;;;15.57;;
59167;SDS011;44948;55.046;73.266;2023-02-15T00:02:24;53.42;;;17.42;;
59167;SDS011;44948;55.046;73.266;2023-02-15T00:04:06;43.30;;;15.15;;
59167;SDS011;44948;55.046;73.266;2023-02-15T00:05:49;41.53;;;15.18;;
59167;SDS011;44948;55.046;73.266;2023-02-15T00:07:30;40.80;;;14.20;;
59167;SDS011;44948;55.046;73.266;2023-02-15T00:09:12;32.92;;;11.23;;
59167;SDS011;44948;55.046;73.266;2023-02-15T00:11:03;31.80;;;11.65;;
59167;SDS011;44948;55.046;73.266;2023-02-15T00:12:44;36.20;;;11.52;;
59167;SDS011;44948;55.046;73.266;2023-02-15T00:14:26;34.10;;;13.15;;
59167;SDS011;44948;55.046;73.266;2023-02-15T00:16:09;48.58;;;13.55;;
59167;SDS011;44948;55.046;73.266;2023-02-15T00:17:51;35.90;;;12.25;;
59167;SDS011;44948;55.046;73.266;2023-02-15T00:19:33;35.75;;;12.80;;
59167;SDS011;44948;55.046;73.266;2023-02-15T00:21:16;38.97;;;13.70;;
59167;SDS011;44948;55.046;73.266;2023-02-15T00:22:58;34.13;;;10.68;;
59167;SDS011;44948;55.046;73.266;2023-02-15T00:24:40;35.30;;;12.05;;
59167;SDS011;44948;55.046;73.266;2023-02-15T00:26:22;20.55;;;7.60;;
59167;SDS011;44948;55.046;73.266;2023-02-15T00:28:04;38.17;;;14.00;;
59167;SDS011;44948;55.046;73.266;2023-02-15T00:29:49;49.30;;;14.10;;
59167;SDS011;44948;55.046;73.266;2023-02-15T00:31:31;36.22;;;13.25;;
59167;SDS011;44948;55.046;73.266;2023-02-15T00:33:13;33.85;;;14.05;;
59167;SDS011;44948;55.046;73.266;2023-02-15T00:34:55;36.42;;;12.02;;
59167;SDS011;44948;55.046;73.266;2023-02-15T00:36:39;61.38;;;13.68;;
59167;SDS011;44948;55.046;73.266;2023-02-15T00:38:21;42.63;;;14.85;;
59167;SDS011;44948;55.046;73.266;2023-02-15T00:40:04;43.45;;;14.68;;
59167;SDS011;44948;55.046;73.266;2023-02-15T00:41:47;54.75;;;17.38;;
59167;SDS011;44948;55.046;73.266;2023-02-15T00:43:29;51.15;;;16.25;;
59167;SDS011;44948;55.046;73.266;2023-02-15T00:45:11;54.70;;;15.90;;
59167;SDS011;44948;55.046;73.266;2023-02-15T00:46:53;40.80;;;12.85;;
59167;SDS011;44948;55.046;73.266;2023-02-15T00:48:35;54.20;;;16.80;;
59167;SDS011;44948;55.046;73.266;2023-02-15T00:52:01;30.15;;;10.15;;
59167;SDS011;44948;55.046;73.266;2023-02-15T00:53:43;30.13;;;8.93;;
59167;SDS011;44948;55.046;73.266;2023-02-15T00:55:25;45.10;;;13.88;;
59167;SDS011;44948;55.046;73.266;2023-02-15T00:57:07;42.17;;;15.15;;
59167;SDS011;44948;55.046;73.266;2023-02-15T00:58:49;36.65;;;14.02;;
59167;SDS011;44948;55.046;73.266;2023-02-15T01:00:30;37.63;;;13.07;;
59167;SDS011;44948;55.046;73.266;2023-02-15T01:02:12;24.05;;;7.95;;
59167;SDS011;44948;55.046;73.266;2023-02-15T01:03:54;44.30;;;14.23;;
59167;SDS011;44948;55.046;73.266;2023-02-15T01:05:36;42.40;;;15.35;;
59167;SDS011;44948;55.046;73.266;2023-02-15T01:07:18;44.00;;;14.95;;
59167;SDS011;44948;55.046;73.266;2023-02-15T01:09:00;48.97;;;14.55;;
59167;SDS011;44948;55.046;73.266;2023-02-15T01:10:42;52.67;;;16.23;;
59167;SDS011;44948;55.046;73.266;2023-02-15T01:12:25;47.83;;;18.00;;
59167;SDS011;44948;55.046;73.266;2023-02-15T01:14:07;48.58;;;17.30;;
59167;SDS011;44948;55.046;73.266;2023-02-15T01:15:53;48.20;;;16.60;;
59167;SDS011;44948;55.046;73.266;2023-02-15T01:17:36;52.03;;;15.02;;
59167;SDS011;44948;55.046;73.266;2023-02-15T01:19:18;46.88;;;17.00;;
59167;SDS011;44948;55.046;73.266;2023-02-15T01:21:08;41.90;;;13.82;;
59167;SDS011;44948;55.046;73.266;2023-02-15T01:22:51;44.95;;;14.25;;
59167;SDS011;44948;55.046;73.266;2023-02-15T01:24:33;41.53;;;13.90;;
59167;SDS011;44948;55.046;73.266;2023-02-15T01:26:17;33.67;;;12.07;;
59167;SDS011;44948;55.046;73.266;2023-02-15T01:27:59;55.60;;;18.10;;
59167;SDS011;44948;55.046;73.266;2023-02-15T01:29:43;44.92;;;16.15;;
59167;SDS011;44948;55.046;73.266;2023-02-15T01:31:25;39.50;;;13.60;;
59167;SDS011;44948;55.046;73.266;2023-02-15T01:33:07;41.72;;;13.52;;
59167;SDS011;44948;55.046;73.266;2023-02-15T01:34:49;47.92;;;16.45;;
59167;SDS011;44948;55.046;73.266;2023-02-15T01:36:32;47.03;;;16.15;;
59167;SDS011;44948;55.046;73.266;2023-02-15T01:38:14;44.92;;;15.23;;
59167;SDS011;44948;55.046;73.266;2023-02-15T01:39:56;46.58;;;17.95;;
59167;SDS011;44948;55.046;73.266;2023-02-15T01:41:38;54.75;;;16.38;;
59167;SDS011;44948;55.046;73.266;2023-02-15T01:43:20;46.50;;;16.92;;
59167;SDS011;44948;55.046;73.266;2023-02-15T01:45:25;41.97;;;13.02;;
59167;SDS011;44948;55.046;73.266;2023-02-15T01:47:04;44.55;;;13.45;;
59167;SDS011;44948;55.046;73.266;2023-02-15T01:48:47;42.38;;;13.77;;
59167;SDS011;44948;55.046;73.266;2023-02-15T01:50:40;45.78;;;15.57;;
59167;SDS011;44948;55.046;73.266;2023-02-15T01:52:23;40.70;;;14.73;;
59167;SDS011;44948;55.046;73.266;2023-02-15T01:54:06;47.42;;;14.65;;
59167;SDS011;44948;55.046;73.266;2023-02-15T01:55:52;46.25;;;16.27;;
59167;SDS011;44948;55.046;73.266;2023-02-15T01:57:35;38.75;;;13.15;;
59167;SDS011;44948;55.046;73.266;2023-02-15T01:59:19;50.73;;;18.83;;
59167;SDS011;44948;55.046;73.266;2023-02-15T02:01:03;47.58;;;18.02;;
59167;SDS011;44948;55.046;73.266;2023-02-15T02:02:46;54.22;;;17.60;;
59167;SDS011;44948;55.046;73.266;2023-02-15T02:04:31;51.42;;;15.05;;
59167;SDS011;44948;55.046;73.266;2023-02-15T02:06:14;56.47;;;16.92;;
59167;SDS011;44948;55.046;73.266;2023-02-15T02:07:57;51.90;;;17.63;;
59167;SDS011;44948;55.046;73.266;2023-02-15T02:09:39;54.00;;;18.15;;
59167;SDS011;44948;55.046;73.266;2023-02-15T02:11:21;48.00;;;15.00;;
59167;SDS011;44948;55.046;73.266;2023-02-15T02:13:04;70.13;;;17.87;;
59167;SDS011;44948;55.046;73.266;2023-02-15T02:14:48;25.15;;;8.77;;
59167;SDS011;44948;55.046;73.266;2023-02-15T02:16:40;45.40;;;16.42;;
59167;SDS011;44948;55.046;73.266;2023-02-15T02:18:49;68.97;;;23.58;;
59167;SDS011;44948;55.046;73.266;2023-02-15T02:20:41;48.97;;;17.77;;
59167;SDS011;44948;55.046;73.266;2023-02-15T02:22:31;50.60;;;19.40;;
59167;SDS011;44948;55.046;73.266;2023-02-15T02:26:04;106.22;;;30.20;;
59167;SDS011;44948;55.046;73.266;2023-02-15T02:29:54;65.93;;;22.77;;
59167;SDS011;44948;55.046;73.266;2023-02-15T02:35:11;72.05;;;22.95;;
59167;SDS011;44948;55.046;73.266;2023-02-15T02:36:57;86.78;;;30.35;;
59167;SDS011;44948;55.046;73.266;2023-02-15T02:42:24;70.47;;;24.70;;
59167;SDS011;44948;55.046;73.266;2023-02-15T02:46:06;37.25;;;13.50;;
59167;SDS011;44948;55.046;73.266;2023-02-15T02:47:54;53.90;;;16.95;;
59167;SDS011;44948;55.046;73.266;2023-02-15T02:49:39;33.13;;;11.73;;
59167;SDS011;44948;55.046;73.266;2023-02-15T02:53:04;66.93;;;21.10;;
59167;SDS011;44948;55.046;73.266;2023-02-15T02:54:46;64.00;;;21.92;;
59167;SDS011;44948;55.046;73.266;2023-02-15T02:56:33;64.50;;;23.00;;
59167;SDS011;44948;55.046;73.266;2023-02-15T03:00:02;71.45;;;25.92;;
59167;SDS011;44948;55.046;73.266;2023-02-15T03:01:49;44.58;;;16.42;;
59167;SDS011;44948;55.046;73.266;2023-02-15T03:03:38;36.05;;;12.68;;
59167;SDS011;44948;55.046;73.266;2023-02-15T03:05:22;75.47;;;23.73;;
59167;SDS011;44948;55.046;73.266;2023-02-15T03:07:07;129.23;;;36.25;;
59167;SDS011;44948;55.046;73.266;2023-02-15T03:08:51;135.68;;;35.30;;
59167;SDS011;44948;55.046;73.266;2023-02-15T03:10:37;91.82;;;30.02;;
59167;SDS011;44948;55.046;73.266;2023-02-15T03:12:21;79.90;;;25.17;;
59167;SDS011;44948;55.046;73.266;2023-02-15T03:14:04;61.63;;;17.55;;
59167;SDS011;44948;55.046;73.266;2023-02-15T03:15:46;76.43;;;21.48;;
59167;SDS011;44948;55.046;73.266;2023-02-15T03:17:51;102.82;;;30.63;;
59167;SDS011;44948;55.046;73.266;2023-02-15T03:19:35;73.00;;;24.55;;
59167;SDS011;44948;55.046;73.266;2023-02-15T03:21:25;51.13;;;17.83;;
59167;SDS011;44948;55.046;73.266;2023-02-15T03:23:13;32.92;;;12.65;;
59167;SDS011;44948;55.046;73.266;2023-02-15T03:26:41;41.22;;;12.15;;
59167;SDS011;44948;55.046;73.266;2023-02-15T03:28:36;45.38;;;14.55;;
59167;SDS011;44948;55.046;73.266;2023-02-15T03:30:20;27.70;;;12.40;;
59167;SDS011;44948;55.046;73.266;2023-02-15T03:32:04;56.30;;;11.90;;
59167;SDS011;44948;55.046;73.266;2023-02-15T03:33:50;27.25;;;11.68;;
59167;SDS011;44948;55.046;73.266;2023-02-15T03:37:45;49.88;;;16.98;;
59167;SDS011;44948;55.046;73.266;2023-02-15T03:39:32;46.67;;;15.80;;
59167;SDS011;44948;55.046;73.266;2023-02-15T03:41:15;27.90;;;11.70;;
59167;SDS011;44948;55.046;73.266;2023-02-15T03:43:00;36.58;;;16.10;;
59167;SDS011;44948;55.046;73.266;2023-02-15T03:46:47;52.80;;;19.10;;
59167;SDS011;44948;55.046;73.266;2023-02-15T03:48:31;38.58;;;13.63;;
59167;SDS011;44948;55.046;73.266;2023-02-15T03:50:21;42.58;;;14.32;;
59167;SDS011;44948;55.046;73.266;2023-02-15T03:52:23;42.55;;;12.77;;
59167;SDS011;44948;55.046;73.266;2023-02-15T03:54:16;36.85;;;13.38;;
59167;SDS011;44948;55.046;73.266;2023-02-15T03:56:18;52.50;;;14.63;;
59167;SDS011;44948;55.046;73.266;2023-02-15T03:58:00;33.08;;;12.30;;
59167;SDS011;44948;55.046;73.266;2023-02-15T04:00:04;36.92;;;14.70;;
59167;SDS011;44948;55.046;73.266;2023-02-15T04:02:24;45.15;;;14.23;;
59167;SDS011;44948;55.046;73.266;2023-02-15T04:04:18;29.52;;;10.40;;
59167;SDS011;44948;55.046;73.266;2023-02-15T04:06:00;41.70;;;11.90;;
59167;SDS011;44948;55.046;73.266;2023-02-15T04:07:43;48.88;;;15.43;;
59167;SDS011;44948;55.046;73.266;2023-02-15T04:09:25;72.68;;;24.55;;
59167;SDS011;44948;55.046;73.266;2023-02-15T04:11:25;47.83;;;15.85;;
59167;SDS011;44948;55.046;73.266;2023-02-15T04:13:07;43.40;;;14.70;;
59167;SDS011;44948;55.046;73.266;2023-02-15T04:14:48;36.83;;;13.05;;
59167;SDS011;44948;55.046;73.266;2023-02-15T04:16:48;29.30;;;11.25;;
59167;SDS011;44948;55.046;73.266;2023-02-15T04:18:35;42.30;;;14.45;;
59167;SDS011;44948;55.046;73.266;2023-02-15T04:20:36;39.97;;;14.45;;
59167;SDS011;44948;55.046;73.266;2023-02-15T04:22:36;46.13;;;19.70;;
59167;SDS011;44948;55.046;73.266;2023-02-15T04:24:37;197.25;;;47.70;;
59167;SDS011;44948;55.046;73.266;2023-02-15T04:26:38;177.85;;;45.13;;
59167;SDS011;44948;55.046;73.266;2023-02-15T04:28:19;86.13;;;27.08;;
59167;SDS011;44948;55.046;73.266;2023-02-15T04:30:02;129.20;;;36.05;;
59167;SDS011;44948;55.046;73.266;2023-02-15T04:31:43;176.13;;;38.78;;
59167;SDS011;44948;55.046;73.266;2023-02-15T04:33:25;104.75;;;23.30;;
59167;SDS011;44948;55.046;73.266;2023-02-15T04:35:07;119.75;;;29.50;;
59167;SDS011;44948;55.046;73.266;2023-02-15T04:36:49;119.57;;;28.83;;
59167;SDS011;44948;55.046;73.266;2023-02-15T04:38:31;89.28;;;22.23;;
59167;SDS011;44948;55.046;73.266;2023-02-15T04:40:13;75.80;;;17.17;;
59167;SDS011;44948;55.046;73.266;2023-02-15T04:41:55;51.40;;;17.25;;
59167;SDS011;44948;55.046;73.266;2023-02-15T04:43:37;28.05;;;12.15;;
59167;SDS011;44948;55.046;73.266;2023-02-15T04:45:19;54.97;;;16.80;;
59167;SDS011;44948;55.046;73.266;2023-02-15T04:47:01;47.10;;;14.18;;
59167;SDS011;44948;55.046;73.266;2023-02-15T04:48:43;32.97;;;13.70;;
59167;SDS011;44948;55.046;73.266;2023-02-15T04:50:27;46.92;;;17.23;;
59167;SDS011;44948;55.046;73.266;2023-02-15T04:52:09;46.83;;;17.70;;
59167;SDS011;44948;55.046;73.266;2023-02-15T04:53:51;42.15;;;12.93;;
59167;SDS011;44948;55.046;73.266;2023-02-15T04:55:38;44.97;;;14.75;;
59167;SDS011;44948;55.046;73.266;2023-02-15T04:57:20;33.20;;;12.02;;
59167;SDS011;44948;55.046;73.266;2023-02-15T04:59:01;35.78;;;12.90;;
59167;SDS011;44948;55.046;73.266;2023-02-15T05:00:43;24.63;;;10.98;;
59167;SDS011;44948;55.046;73.266;2023-02-15T05:02:25;54.47;;;17.35;;
59167;SDS011;44948;55.046;73.266;2023-02-15T05:04:07;34.83;;;15.15;;
59167;SDS011;44948;55.046;73.266;2023-02-15T05:05:49;41.60;;;14.10;;
59167;SDS011;44948;55.046;73.266;2023-02-15T05:07:31;39.15;;;10.88;;
59167;SDS011;44948;55.046;73.266;2023-02-15T05:09:12;44.88;;;13.93;;
59167;SDS011;44948;55.046;73.266;2023-02-15T05:10:54;44.75;;;14.02;;
59167;SDS011;44948;55.046;73.266;2023-02-15T05:12:36;36.20;;;12.93;;
59167;SDS011;44948;55.046;73.266;2023-02-15T05:14:18;46.45;;;14.00;;
59167;SDS011;44948;55.046;73.266;2023-02-15T05:15:59;33.03;;;11.70;;
59167;SDS011;44948;55.046;73.266;2023-02-15T05:17:41;33.00;;;12.25;;
59167;SDS011;44948;55.046;73.266;2023-02-15T05:19:23;47.78;;;16.42;;
59167;SDS011;44948;55.046;73.266;2023-02-15T05:21:05;47.42;;;16.65;;
59167;SDS011;44948;55.046;73.266;2023-02-15T05:22:47;54.75;;;17.05;;
59167;SDS011;44948;55.046;73.266;2023-02-15T05:24:29;48.80;;;13.70;;
59167;SDS011;44948;55.046;73.266;2023-02-15T05:26:29;46.45;;;15.00;;
59167;SDS011;44948;55.046;73.266;2023-02-15T05:28:29;54.83;;;18.73;;
59167;SDS011;44948;55.046;73.266;2023-02-15T05:30:20;51.33;;;17.48;;
59167;SDS011;44948;55.046;73.266;2023-02-15T05:32:02;47.05;;;14.55;;
59167;SDS011;44948;55.046;73.266;2023-02-15T05:33:45;56.75;;;19.83;;
59167;SDS011;44948;55.046;73.266;2023-02-15T05:35:27;60.63;;;17.08;;
59167;SDS011;44948;55.046;73.266;2023-02-15T05:37:09;63.22;;;19.38;;
59167;SDS011;44948;55.046;73.266;2023-02-15T05:38:50;62.22;;;21.23;;
59167;SDS011;44948;55.046;73.266;2023-02-15T05:40:32;60.30;;;18.75;;
59167;SDS011;44948;55.046;73.266;2023-02-15T05:42:14;64.57;;;19.13;;
59167;SDS011;44948;55.046;73.266;2023-02-15T05:43:55;55.85;;;17.33;;
59167;SDS011;44948;55.046;73.266;2023-02-15T05:45:38;35.00;;;12.52;;
59167;SDS011;44948;55.046;73.266;2023-02-15T05:47:19;76.50;;;23.40;;
59167;SDS011;44948;55.046;73.266;2023-02-15T05:49:01;71.80;;;23.30;;
59167;SDS011;44948;55.046;73.266;2023-02-15T05:50:43;41.03;;;13.20;;
59167;SDS011;44948;55.046;73.266;2023-02-15T05:52:25;67.95;;;21.35;;
59167;SDS011;44948;55.046;73.266;2023-02-15T05:54:07;51.42;;;17.25;;
59167;SDS011;44948;55.046;73.266;2023-02-15T05:55:48;53.60;;;15.57;;
59167;SDS011;44948;55.046;73.266;2023-02-15T05:57:30;56.80;;;19.33;;
59167;SDS011;44948;55.046;73.266;2023-02-15T05:59:12;72.10;;;21.67;;
59167;SDS011;44948;55.046;73.266;2023-02-15T06:00:54;63.38;;;19.27;;
59167;SDS011;44948;55.046;73.266;2023-02-15T06:02:36;61.92;;;18.73;;
59167;SDS011;44948;55.046;73.266;2023-02-15T06:04:18;60.50;;;16.50;;
59167;SDS011;44948;55.046;73.266;2023-02-15T06:06:00;51.53;;;15.48;;
59167;SDS011;44948;55.046;73.266;2023-02-15T06:07:44;58.65;;;19.75;;
59167;SDS011;44948;55.046;73.266;2023-02-15T06:09:26;44.22;;;14.82;;
59167;SDS011;44948;55.046;73.266;2023-02-15T06:11:08;63.05;;;19.50;;
59167;SDS011;44948;55.046;73.266;2023-02-15T06:12:50;44.25;;;16.70;;
59167;SDS011;44948;55.046;73.266;2023-02-15T06:14:32;53.38;;;15.40;;
59167;SDS011;44948;55.046;73.266;2023-02-15T06:16:14;60.80;;;18.17;;
59167;SDS011;44948;55.046;73.266;2023-02-15T06:17:57;78.60;;;23.98;;
59167;SDS011;44948;55.046;73.266;2023-02-15T06:19:39;81.45;;;21.38;;
59167;SDS011;44948;55.046;73.266;2023-02-15T06:21:21;60.90;;;18.33;;
59167;SDS011;44948;55.046;73.266;2023-02-15T06:23:03;95.47;;;27.40;;
59167;SDS011;44948;55.046;73.266;2023-02-15T06:24:46;48.77;;;15.23;;
59167;SDS011;44948;55.046;73.266;2023-02-15T06:26:28;68.18;;;19.80;;
59167;SDS011;44948;55.046;73.266;2023-02-15T06:28:09;58.67;;;17.75;;
59167;SDS011;44948;55.046;73.266;2023-02-15T06:29:51;69.80;;;20.98;;
59167;SDS011;44948;55.046;73.266;2023-02-15T06:31:33;94.50;;;28.75;;
59167;SDS011;44948;55.046;73.266;2023-02-15T06:33:15;87.82;;;26.05;;
59167;SDS011;44948;55.046;73.266;2023-02-15T06:34:57;90.35;;;26.52;;
59167;SDS011;44948;55.046;73.266;2023-02-15T06:36:39;67.90;;;18.30;;
59167;SDS011;44948;55.046;73.266;2023-02-15T06:38:23;76.22;;;24.88;;
59167;SDS011;44948;55.046;73.266;2023-02-15T06:40:05;67.88;;;21.02;;
59167;SDS011;44948;55.046;73.266;2023-02-15T06:41:48;69.30;;;25.05;;
59167;SDS011;44948;55.046;73.266;2023-02-15T06:43:33;62.28;;;17.95;;
59167;SDS011;44948;55.046;73.266;2023-02-15T06:45:15;48.53;;;16.15;;
59167;SDS011;44948;55.046;73.266;2023-02-15T06:46:57;65.20;;;19.80;;
59167;SDS011;44948;55.046;73.266;2023-02-15T06:48:39;61.17;;;18.45;;
59167;SDS011;44948;55.046;73.266;2023-02-15T06:50:21;76.82;;;22.67;;
59167;SDS011;44948;55.046;73.266;2023-02-15T06:52:03;40.63;;;14.75;;
59167;SDS011;44948;55.046;73.266;2023-02-15T06:53:45;45.92;;;14.75;;
59167;SDS011;44948;55.046;73.266;2023-02-15T06:55:27;72.13;;;22.17;;
59167;SDS011;44948;55.046;73.266;2023-02-15T06:57:09;70.38;;;19.08;;
59167;SDS011;44948;55.046;73.266;2023-02-15T06:58:51;68.10;;;18.42;;
59167;SDS011;44948;55.046;73.266;2023-02-15T07:00:34;80.78;;;21.83;;
59167;SDS011;44948;55.046;73.266;2023-02-15T07:02:17;74.50;;;19.95;;
59167;SDS011;44948;55.046;73.266;2023-02-15T07:03:58;68.38;;;20.50;;
59167;SDS011;44948;55.046;73.266;2023-02-15T07:05:40;76.63;;;23.20;;
59167;SDS011;44948;55.046;73.266;2023-02-15T07:07:25;57.50;;;19.42;;
59167;SDS011;44948;55.046;73.266;2023-02-15T07:09:07;80.57;;;23.15;;
59167;SDS011;44948;55.046;73.266;2023-02-15T07:10:50;88.95;;;24.67;;
59167;SDS011;44948;55.046;73.266;2023-02-15T07:12:32;87.40;;;24.47;;
59167;SDS011;44948;55.046;73.266;2023-02-15T07:14:23;76.05;;;24.75;;
59167;SDS011;44948;55.046;73.266;2023-02-15T07:16:05;83.78;;;22.25;;
59167;SDS011;44948;55.046;73.266;2023-02-15T07:17:47;94.00;;;25.02;;
59167;SDS011;44948;55.046;73.266;2023-02-15T07:19:30;69.93;;;21.52;;
59167;SDS011;44948;55.046;73.266;2023-02-15T07:21:12;85.63;;;25.00;;
59167;SDS011;44948;55.046;73.266;2023-02-15T07:22:53;78.03;;;22.45;;
59167;SDS011;44948;55.046;73.266;2023-02-15T07:24:35;73.57;;;25.63;;
59167;SDS011;44948;55.046;73.266;2023-02-15T07:26:17;68.28;;;20.67;;
59167;SDS011;44948;55.046;73.266;2023-02-15T07:28:00;74.65;;;23.75;;
59167;SDS011;44948;55.046;73.266;2023-02-15T07:29:42;70.75;;;24.17;;
59167;SDS011;44948;55.046;73.266;2023-02-15T07:31:24;81.15;;;23.38;;
59167;SDS011;44948;55.046;73.266;2023-02-15T07:33:07;71.13;;;22.20;;
59167;SDS011;44948;55.046;73.266;2023-02-15T07:35:04;85.28;;;24.48;;
59167;SDS011;44948;55.046;73.266;2023-02-15T07:36:46;72.63;;;23.40;;
59167;SDS011;44948;55.046;73.266;2023-02-15T07:38:32;71.50;;;21.60;;
59167;SDS011;44948;55.046;73.266;2023-02-15T07:40:14;81.82;;;26.50;;
59167;SDS011;44948;55.046;73.266;2023-02-15T07:41:56;77.95;;;19.75;;
59167;SDS011;44948;55.046;73.266;2023-02-15T07:43:45;71.28;;;18.80;;
59167;SDS011;44948;55.046;73.266;2023-02-15T07:45:26;75.78;;;22.48;;
59167;SDS011;44948;55.046;73.266;2023-02-15T07:47:08;64.68;;;21.02;;
59167;SDS011;44948;55.046;73.266;2023-02-15T07:48:50;68.03;;;19.30;;
59167;SDS011;44948;55.046;73.266;2023-02-15T07:50:32;76.55;;;23.98;;
59167;SDS011;44948;55.046;73.266;2023-02-15T07:52:14;46.50;;;15.23;;
59167;SDS011;44948;55.046;73.266;2023-02-15T07:53:56;71.70;;;22.92;;
59167;SDS011;44948;55.046;73.266;2023-02-15T07:55:38;67.90;;;19.52;;
59167;SDS011;44948;55.046;73.266;2023-02-15T07:57:20;62.25;;;17.65;;
59167;SDS011;44948;55.046;73.266;2023-02-15T07:59:02;66.63;;;20.35;;
59167;SDS011;44948;55.046;73.266;2023-02-15T08:00:46;55.83;;;15.50;;
59167;SDS011;44948;55.046;73.266;2023-02-15T08:02:47;56.42;;;18.50;;
59167;SDS011;44948;55.046;73.266;2023-02-15T08:04:30;55.00;;;17.00;;
59167;SDS011;44948;55.046;73.266;2023-02-15T08:06:12;64.97;;;20.42;;
59167;SDS011;44948;55.046;73.266;2023-02-15T08:07:54;70.53;;;22.90;;
59167;SDS011;44948;55.046;73.266;2023-02-15T08:09:36;65.90;;;19.88;;
59167;SDS011;44948;55.046;73.266;2023-02-15T08:11:25;59.53;;;18.90;;
59167;SDS011;44948;55.046;73.266;2023-02-15T08:13:07;67.78;;;22.50;;
59167;SDS011;44948;55.046;73.266;2023-02-15T08:14:49;73.28;;;24.00;;
59167;SDS011;44948;55.046;73.266;2023-02-15T08:16:32;59.63;;;18.13;;
59167;SDS011;44948;55.046;73.266;2023-02-15T08:19:55;52.72;;;16.48;;
59167;SDS011;44948;55.046;73.266;2023-02-15T08:21:38;57.60;;;16.05;;
59167;SDS011;44948;55.046;73.266;2023-02-15T08:23:20;65.18;;;20.45;;
59167;SDS011;44948;55.046;73.266;2023-02-15T08:25:02;58.20;;;18.83;;
59167;SDS011;44948;55.046;73.266;2023-02-15T08:26:47;74.83;;;23.93;;
59167;SDS011;44948;55.046;73.266;2023-02-15T08:28:29;31.73;;;11.68;;
59167;SDS011;44948;55.046;73.266;2023-02-15T08:30:11;64.28;;;19.48;;
59167;SDS011;44948;55.046;73.266;2023-02-15T08:31:54;51.50;;;19.60;;
59167;SDS011;44948;55.046;73.266;2023-02-15T08:33:37;37.90;;;14.10;;
59167;SDS011;44948;55.046;73.266;2023-02-15T08:35:19;60.22;;;18.95;;
59167;SDS011;44948;55.046;73.266;2023-02-15T08:37:01;78.95;;;20.58;;
59167;SDS011;44948;55.046;73.266;2023-02-15T08:38:43;51.25;;;17.48;;
59167;SDS011;44948;55.046;73.266;2023-02-15T08:40:25;65.78;;;24.13;;
59167;SDS011;44948;55.046;73.266;2023-02-15T08:42:06;52.50;;;15.48;;
59167;SDS011;44948;55.046;73.266;2023-02-15T08:43:52;51.33;;;17.08;;
59167;SDS011;44948;55.046;73.266;2023-02-15T08:45:35;61.28;;;21.80;;
59167;SDS011;44948;55.046;73.266;2023-02-15T08:47:17;49.70;;;17.35;;
59167;SDS011;44948;55.046;73.266;2023-02-15T08:48:59;79.00;;;16.17;;
59167;SDS011;44948;55.046;73.266;2023-02-15T08:50:41;50.15;;;15.82;;
59167;SDS011;44948;55.046;73.266;2023-02-15T08:52:22;33.08;;;13.65;;
59167;SDS011;44948;55.046;73.266;2023-02-15T08:54:05;51.28;;;14.60;;
59167;SDS011;44948;55.046;73.266;2023-02-15T08:55:54;34.45;;;13.38;;
59167;SDS011;44948;55.046;73.266;2023-02-15T08:57:37;43.13;;;11.20;;
59167;SDS011;44948;55.046;73.266;2023-02-15T08:59:20;41.40;;;14.43;;
59167;SDS011;44948;55.046;73.266;2023-02-15T09:01:18;47.42;;;15.85;;
59167;SDS011;44948;55.046;73.266;2023-02-15T09:03:03;48.45;;;16.40;;
59167;SDS011;44948;55.046;73.266;2023-02-15T09:04:45;59.45;;;20.17;;
59167;SDS011;44948;55.046;73.266;2023-02-15T09:06:27;39.47;;;14.80;;
59167;SDS011;44948;55.046;73.266;2023-02-15T09:08:09;42.63;;;14.10;;
59167;SDS011;44948;55.046;73.266;2023-02-15T09:09:51;35.80;;;12.93;;
59167;SDS011;44948;55.046;73.266;2023-02-15T09:11:37;41.83;;;14.27;;
59167;SDS011;44948;55.046;73.266;2023-02-15T09:15:02;30.02;;;11.27;;
59167;SDS011;44948;55.046;73.266;2023-02-15T09:16:44;30.48;;;11.27;;
59167;SDS011;44948;55.046;73.266;2023-02-15T09:18:33;32.83;;;12.55;;
59167;SDS011;44948;55.046;73.266;2023-02-15T09:20:16;31.38;;;11.07;;
59167;SDS011;44948;55.046;73.266;2023-02-15T09:21:58;40.95;;;12.98;;
59167;SDS011;44948;55.046;73.266;2023-02-15T09:23:42;44.15;;;15.60;;
59167;SDS011;44948;55.046;73.266;2023-02-15T09:25:24;44.63;;;14.55;;
59167;SDS011;44948;55.046;73.266;2023-02-15T09:27:05;43.55;;;15.70;;
59167;SDS011;44948;55.046;73.266;2023-02-15T09:28:51;58.08;;;19.33;;
59167;SDS011;44948;55.046;73.266;2023-02-15T09:30:33;32.97;;;10.77;;
59167;SDS011;44948;55.046;73.266;2023-02-15T09:32:14;32.42;;;12.68;;
59167;SDS011;44948;55.046;73.266;2023-02-15T09:33:58;52.40;;;17.98;;
59167;SDS011;44948;55.046;73.266;2023-02-15T09:35:41;46.13;;;14.43;;
59167;SDS011;44948;55.046;73.266;2023-02-15T09:37:23;34.10;;;11.30;;
59167;SDS011;44948;55.046;73.266;2023-02-15T09:40:51;22.63;;;8.95;;
59167;SDS011;44948;55.046;73.266;2023-02-15T09:52:10;38.10;;;13.98;;
59167;SDS011;44948;55.046;73.266;2023-02-15T09:56:05;40.90;;;12.75;;
59167;SDS011;44948;55.046;73.266;2023-02-15T10:03:22;29.38;;;10.70;;
59167;SDS011;44948;55.046;73.266;2023-02-15T10:06:53;47.15;;;15.38;;
59167;SDS011;44948;55.046;73.266;2023-02-15T10:08:55;41.38;;;14.60;;
59167;SDS011;44948;55.046;73.266;2023-02-15T10:14:35;46.67;;;15.93;;
59167;SDS011;44948;55.046;73.266;2023-02-15T10:16:23;25.15;;;9.30;;
59167;SDS011;44948;55.046;73.266;2023-02-15T10:22:09;43.58;;;13.02;;
59167;SDS011;44948;55.046;73.266;2023-02-15T10:24:17;45.10;;;15.45;;
59167;SDS011;44948;55.046;73.266;2023-02-15T10:27:53;31.17;;;10.63;;
59167;SDS011;44948;55.046;73.266;2023-02-15T10:29:35;31.85;;;11.63;;
59167;SDS011;44948;55.046;73.266;2023-02-15T10:35:23;28.48;;;10.00;;
59167;SDS011;44948;55.046;73.266;2023-02-15T10:44:34;29.60;;;11.02;;
59167;SDS011;44948;55.046;73.266;2023-02-15T10:50:04;36.45;;;11.43;;
59167;SDS011;44948;55.046;73.266;2023-02-15T10:55:52;19.50;;;6.43;;
59167;SDS011;44948;55.046;73.266;2023-02-15T11:01:41;27.80;;;10.50;;
59167;SDS011;44948;55.046;73.266;2023-02-15T11:05:20;31.13;;;11.45;;
59167;SDS011;44948;55.046;73.266;2023-02-15T11:09:04;31.20;;;11.52;;
59167;SDS011;44948;55.046;73.266;2023-02-15T11:11:25;32.65;;;11.20;;
59167;SDS011;44948;55.046;73.266;2023-02-15T11:13:00;35.50;;;10.63;;
59167;SDS011;44948;55.046;73.266;2023-02-15T11:16:33;38.17;;;10.50;;
59167;SDS011;44948;55.046;73.266;2023-02-15T11:18:37;27.05;;;9.45;;
59167;SDS011;44948;55.046;73.266;2023-02-15T11:20:42;30.73;;;10.93;;
59167;SDS011;44948;55.046;73.266;2023-02-15T11:22:25;28.40;;;10.30;;
59167;SDS011;44948;55.046;73.266;2023-02-15T11:24:12;26.88;;;8.95;;
59167;SDS011;44948;55.046;73.266;2023-02-15T11:25:58;36.83;;;11.10;;
59167;SDS011;44948;55.046;73.266;2023-02-15T11:27:41;19.85;;;8.43;;
59167;SDS011;44948;55.046;73.266;2023-02-15T11:29:28;33.80;;;12.63;;